Time;durP1;ratioP1;P1;durP2;ratioP2;P2;SDS_P1;SDS_P2;PMS_P1;PMS_P2;Temp;Humidity;BMP_temperature;BMP_pressure;BME280_temperature;BME280_humidity;BME280_pressure;Samples;Min_cycle;Max_cycle;Signal;HPM_P1;HPM_P2
2023/06/06 00:00:16;;;;;;;10.65;6.18;;;;;;;;;;5015172;28;20485;-79
2023/06/06 00:02:46;;;;;;;10.88;5.88;;;;;;;;;;5021350;28;20033;-78
2023/06/06 00:05:15;;;;;;;9.23;6.43;;;;;;;;;;5025193;28;20101;-78
2023/06/06 00:07:45;;;;;;;9.10;5.85;;;;;;;;;;5017787;28;20026;-78
2023/06/06 00:10:13;;;;;;;7.30;5.72;;;;;;;;;;5005460;28;20022;-79
2023/06/06 00:12:41;;;;;;;8.27;6.50;;;;;;;;;;5031528;28;20041;-79
2023/06/06 00:15:07;;;;;;;10.43;6.47;;;;;;;;;;5030104;28;20037;-77
2023/06/06 00:17:33;;;;;;;6.47;5.25;;;;;;;;;;5016855;28;20030;-79
2023/06/06 00:20:00;;;;;;;7.93;6.07;;;;;;;;;;5020909;28;20038;-79
2023/06/06 00:22:27;;;;;;;9.45;6.63;;;;;;;;;;5022225;28;20060;-79
2023/06/06 00:24:53;;;;;;;8.38;6.10;;;;;;;;;;5025701;28;20464;-78
2023/06/06 00:27:20;;;;;;;13.02;6.95;;;;;;;;;;5020881;28;20034;-77
2023/06/06 00:29:46;;;;;;;8.60;6.18;;;;;;;;;;5020004;28;20022;-78
2023/06/06 00:32:12;;;;;;;7.55;5.90;;;;;;;;;;5020658;28;20033;-78
2023/06/06 00:34:38;;;;;;;7.22;6.00;;;;;;;;;;5022133;28;20026;-78
2023/06/06 00:37:04;;;;;;;8.68;5.38;;;;;;;;;;5012667;28;20064;-78
2023/06/06 00:39:30;;;;;;;9.38;5.40;;;;;;;;;;5012960;28;20022;-78
2023/06/06 00:41:56;;;;;;;7.97;5.65;;;;;;;;;;5012940;28;20042;-78
2023/06/06 00:44:22;;;;;;;6.90;5.85;;;;;;;;;;4996683;28;20419;-79
2023/06/06 00:46:49;;;;;;;8.07;6.28;;;;;;;;;;5014238;28;20080;-79
2023/06/06 00:49:15;;;;;;;7.32;5.18;;;;;;;;;;5015962;28;20030;-79
2023/06/06 00:51:42;;;;;;;6.88;5.32;;;;;;;;;;5016264;28;20026;-79
2023/06/06 00:54:12;;;;;;;7.65;5.50;;;;;;;;;;5016106;28;20384;-79
2023/06/06 00:56:39;;;;;;;6.90;5.63;;;;;;;;;;5016149;28;20072;-78
2023/06/06 00:59:05;;;;;;;8.77;5.72;;;;;;;;;;5016322;28;20036;-78
2023/06/06 01:01:33;;;;;;;6.93;5.50;;;;;;;;;;5016022;28;20101;-78
2023/06/06 01:04:00;;;;;;;9.55;6.22;;;;;;;;;;5016293;28;20026;-78
2023/06/06 01:06:27;;;;;;;10.27;6.00;;;;;;;;;;5016141;28;20377;-78
2023/06/06 01:08:53;;;;;;;8.35;6.15;;;;;;;;;;5011247;28;20045;-77
2023/06/06 01:11:29;;;;;;;9.02;6.85;;;;;;;;;;5030074;28;20018;-77
2023/06/06 01:14:18;;;;;;;18.00;7.75;;;;;;;;;;5025594;28;20026;-78
2023/06/06 01:16:49;;;;;;;8.80;7.05;;;;;;;;;;4988468;28;20030;-77
2023/06/06 01:19:19;;;;;;;9.85;7.80;;;;;;;;;;5020264;28;20026;-79
2023/06/06 01:21:45;;;;;;;10.10;7.25;;;;;;;;;;5019491;28;20145;-79
2023/06/06 01:24:12;;;;;;;11.95;7.95;;;;;;;;;;5019193;28;20103;-79
2023/06/06 01:26:38;;;;;;;19.60;8.90;;;;;;;;;;5018807;28;20017;-79
2023/06/06 01:29:04;;;;;;;12.65;8.70;;;;;;;;;;5018141;28;20485;-79
2023/06/06 01:31:36;;;;;;;9.63;8.27;;;;;;;;;;5018991;28;20099;-79
2023/06/06 01:34:07;;;;;;;11.60;8.65;;;;;;;;;;5023905;28;20102;-79
2023/06/06 01:36:48;;;;;;;11.68;8.02;;;;;;;;;;5024776;28;20026;-79
2023/06/06 01:39:17;;;;;;;10.93;7.83;;;;;;;;;;5018141;28;20041;-79
2023/06/06 01:41:47;;;;;;;9.32;7.90;;;;;;;;;;5023853;28;20276;-80
2023/06/06 01:44:14;;;;;;;10.75;8.13;;;;;;;;;;5018043;28;20025;-78
2023/06/06 01:46:41;;;;;;;10.98;8.18;;;;;;;;;;5003461;28;20451;-79
2023/06/06 01:49:07;;;;;;;10.48;8.27;;;;;;;;;;5018370;28;20032;-77
2023/06/06 01:51:33;;;;;;;10.23;8.55;;;;;;;;;;5016572;28;20036;-76
2023/06/06 01:53:59;;;;;;;12.57;9.13;;;;;;;;;;5017126;28;20097;-77
2023/06/06 01:56:26;;;;;;;12.23;9.35;;;;;;;;;;5017343;28;20022;-78
2023/06/06 01:58:52;;;;;;;13.70;8.43;;;;;;;;;;5016651;28;20026;-78
2023/06/06 02:01:18;;;;;;;10.75;8.55;;;;;;;;;;5017124;28;20026;-77
2023/06/06 02:03:44;;;;;;;12.98;8.75;;;;;;;;;;5017325;28;20035;-78
2023/06/06 02:06:10;;;;;;;10.15;8.98;;;;;;;;;;5016815;28;20503;-78
2023/06/06 02:08:36;;;;;;;11.20;8.77;;;;;;;;;;5017814;28;20152;-77
2023/06/06 02:11:02;;;;;;;12.55;10.32;;;;;;;;;;5017536;28;20014;-78
2023/06/06 02:13:28;;;;;;;13.07;10.23;;;;;;;;;;5017345;28;20033;-78
2023/06/06 02:15:55;;;;;;;12.70;10.85;;;;;;;;;;5012467;28;20393;-77
2023/06/06 02:18:21;;;;;;;16.30;11.40;;;;;;;;;;5015879;28;20033;-77
2023/06/06 02:20:47;;;;;;;13.65;11.38;;;;;;;;;;5016056;28;20048;-77
2023/06/06 02:23:13;;;;;;;16.52;11.05;;;;;;;;;;5007702;28;20022;-77
2023/06/06 02:25:39;;;;;;;15.05;11.55;;;;;;;;;;5008966;28;20033;-77
2023/06/06 02:28:07;;;;;;;14.68;12.00;;;;;;;;;;5016016;28;20105;-77
2023/06/06 02:30:33;;;;;;;17.58;13.02;;;;;;;;;;5015610;28;20010;-77
2023/06/06 02:33:00;;;;;;;13.70;12.23;;;;;;;;;;5016001;28;20014;-77
2023/06/06 02:35:26;;;;;;;15.20;12.07;;;;;;;;;;5015442;28;20030;-77
2023/06/06 02:37:52;;;;;;;15.52;12.70;;;;;;;;;;5003368;28;20038;-77
2023/06/06 02:40:18;;;;;;;15.13;12.93;;;;;;;;;;5015805;28;20018;-77
2023/06/06 02:42:44;;;;;;;17.88;13.70;;;;;;;;;;5015976;28;20084;-78
2023/06/06 02:45:11;;;;;;;15.23;12.38;;;;;;;;;;5024625;28;20040;-77
2023/06/06 02:47:37;;;;;;;16.80;14.07;;;;;;;;;;5026438;28;20027;-77
2023/06/06 02:50:04;;;;;;;15.05;13.27;;;;;;;;;;5008945;28;20033;-77
2023/06/06 02:52:31;;;;;;;15.65;13.05;;;;;;;;;;5021537;28;20014;-77
2023/06/06 02:54:58;;;;;;;19.08;14.02;;;;;;;;;;5020437;28;20022;-77
2023/06/06 02:57:24;;;;;;;16.52;14.23;;;;;;;;;;5014552;28;20034;-77
2023/06/06 02:59:51;;;;;;;21.25;16.30;;;;;;;;;;5014312;28;20030;-77
2023/06/06 03:02:17;;;;;;;19.42;14.20;;;;;;;;;;5001783;28;20176;-76
2023/06/06 03:04:43;;;;;;;23.65;17.30;;;;;;;;;;5018997;28;20049;-77
2023/06/06 03:07:10;;;;;;;20.80;17.33;;;;;;;;;;5017267;28;20387;-77
2023/06/06 03:09:37;;;;;;;19.60;15.90;;;;;;;;;;5019018;28;20396;-77
2023/06/06 03:12:03;;;;;;;21.70;15.23;;;;;;;;;;5019360;28;20026;-77
2023/06/06 03:14:29;;;;;;;20.20;17.40;;;;;;;;;;5016827;28;20579;-77
2023/06/06 03:16:56;;;;;;;21.45;17.88;;;;;;;;;;5013849;28;20484;-77
2023/06/06 03:19:22;;;;;;;19.05;17.05;;;;;;;;;;5014199;28;20064;-77
2023/06/06 03:21:48;;;;;;;22.77;16.40;;;;;;;;;;5002353;28;20029;-78
2023/06/06 03:24:15;;;;;;;21.48;17.02;;;;;;;;;;5015493;28;20089;-77
2023/06/06 03:26:44;;;;;;;27.00;18.02;;;;;;;;;;5014483;28;20018;-77
2023/06/06 03:29:10;;;;;;;21.77;15.77;;;;;;;;;;5013615;28;20013;-76
2023/06/06 03:31:37;;;;;;;27.73;18.08;;;;;;;;;;5014737;28;20034;-78
2023/06/06 03:34:03;;;;;;;18.70;16.38;;;;;;;;;;5015914;28;20460;-78
2023/06/06 03:36:34;;;;;;;19.55;16.92;;;;;;;;;;5015245;28;20018;-78
2023/06/06 03:39:03;;;;;;;23.48;18.52;;;;;;;;;;4999124;28;20029;-78
2023/06/06 03:41:32;;;;;;;25.50;19.30;;;;;;;;;;5017064;28;20312;-78
2023/06/06 03:44:01;;;;;;;26.65;20.90;;;;;;;;;;5017650;28;20026;-78
2023/06/06 03:46:27;;;;;;;24.48;19.35;;;;;;;;;;5021210;28;20025;-78
2023/06/06 03:48:53;;;;;;;24.90;21.88;;;;;;;;;;5017742;28;20014;-78
2023/06/06 03:51:19;;;;;;;31.58;21.73;;;;;;;;;;5018317;28;20018;-79
2023/06/06 03:53:45;;;;;;;28.73;22.02;;;;;;;;;;5011032;28;20499;-77
2023/06/06 03:56:12;;;;;;;33.95;21.35;;;;;;;;;;5018042;28;20444;-79
2023/06/06 03:58:38;;;;;;;27.55;21.42;;;;;;;;;;5014875;28;20021;-79
2023/06/06 04:01:04;;;;;;;25.92;22.83;;;;;;;;;;5017500;28;20092;-79
2023/06/06 04:03:36;;;;;;;30.35;22.45;;;;;;;;;;5018525;28;20026;-77
2023/06/06 04:06:04;;;;;;;32.63;23.27;;;;;;;;;;5018040;28;20022;-78
2023/06/06 04:08:31;;;;;;;25.50;21.70;;;;;;;;;;5019230;28;20144;-79
2023/06/06 04:10:57;;;;;;;31.77;24.65;;;;;;;;;;5011189;28;20113;-78
2023/06/06 04:13:23;;;;;;;27.55;23.73;;;;;;;;;;5016666;28;20428;-78
2023/06/06 04:15:49;;;;;;;31.58;23.83;;;;;;;;;;5016628;28;20038;-78
2023/06/06 04:18:16;;;;;;;31.63;26.23;;;;;;;;;;5014340;28;20034;-78
2023/06/06 04:20:45;;;;;;;31.30;25.55;;;;;;;;;;5016559;28;20534;-78
2023/06/06 04:23:11;;;;;;;34.70;26.75;;;;;;;;;;5012607;28;20112;-79
2023/06/06 04:25:37;;;;;;;33.70;26.00;;;;;;;;;;5021351;28;20125;-78
2023/06/06 04:28:05;;;;;;;28.13;22.88;;;;;;;;;;5020925;28;20034;-78
2023/06/06 04:30:32;;;;;;;38.45;29.80;;;;;;;;;;5019756;28;20384;-78
2023/06/06 04:33:00;;;;;;;29.50;24.65;;;;;;;;;;5024879;28;20046;-78
2023/06/06 04:35:26;;;;;;;34.63;27.80;;;;;;;;;;5029530;28;20040;-78
2023/06/06 04:37:54;;;;;;;29.25;23.40;;;;;;;;;;5030207;28;20052;-79
2023/06/06 04:40:24;;;;;;;28.38;24.05;;;;;;;;;;5031184;28;20018;-79
2023/06/06 04:42:58;;;;;;;25.08;20.92;;;;;;;;;;5024606;28;20018;-79
2023/06/06 04:45:24;;;;;;;30.58;24.20;;;;;;;;;;5020466;28;20030;-78
2023/06/06 04:47:55;;;;;;;37.15;29.88;;;;;;;;;;5019599;28;20490;-79
2023/06/06 04:50:23;;;;;;;29.52;23.25;;;;;;;;;;5016566;28;20018;-78
2023/06/06 04:52:49;;;;;;;28.67;23.17;;;;;;;;;;5016096;28;20113;-78
2023/06/06 04:55:18;;;;;;;31.75;23.88;;;;;;;;;;5015399;28;20480;-79
2023/06/06 04:57:44;;;;;;;29.58;24.95;;;;;;;;;;5015432;28;20034;-78
2023/06/06 05:00:12;;;;;;;31.20;24.33;;;;;;;;;;5014962;28;20044;-78
2023/06/06 05:02:39;;;;;;;24.80;20.70;;;;;;;;;;5015762;28;20022;-78
2023/06/06 05:05:09;;;;;;;26.80;23.40;;;;;;;;;;5016622;28;20022;-79
2023/06/06 05:07:35;;;;;;;27.17;22.75;;;;;;;;;;5017528;28;20038;-78
2023/06/06 05:10:02;;;;;;;30.10;24.27;;;;;;;;;;5028005;28;20040;-78
2023/06/06 05:12:28;;;;;;;23.42;20.48;;;;;;;;;;5027570;28;20074;-77
2023/06/06 05:14:54;;;;;;;24.33;20.88;;;;;;;;;;5026005;28;20026;-78
2023/06/06 05:17:22;;;;;;;31.48;24.50;;;;;;;;;;5028489;28;20026;-78
2023/06/06 05:19:48;;;;;;;29.48;23.88;;;;;;;;;;5029952;28;20030;-78
2023/06/06 05:22:14;;;;;;;27.02;20.83;;;;;;;;;;5026415;28;20053;-76
2023/06/06 05:24:41;;;;;;;25.73;20.98;;;;;;;;;;5024225;28;20033;-77
2023/06/06 05:27:07;;;;;;;22.70;19.98;;;;;;;;;;5032176;28;20014;-75
2023/06/06 05:29:35;;;;;;;29.80;20.10;;;;;;;;;;5027853;28;20037;-78
2023/06/06 05:32:01;;;;;;;29.17;22.13;;;;;;;;;;5019548;28;20483;-77
2023/06/06 05:34:27;;;;;;;27.63;23.13;;;;;;;;;;5016128;28;20034;-77
2023/06/06 05:36:53;;;;;;;22.77;20.38;;;;;;;;;;5015500;28;20030;-77
2023/06/06 05:39:19;;;;;;;25.27;21.52;;;;;;;;;;5016631;28;20034;-76
2023/06/06 05:41:47;;;;;;;28.75;22.17;;;;;;;;;;5014067;28;20030;-76
2023/06/06 05:44:15;;;;;;;29.83;25.23;;;;;;;;;;5013765;28;20208;-77
2023/06/06 05:46:41;;;;;;;21.42;16.13;;;;;;;;;;5015134;28;20030;-76
2023/06/06 05:49:08;;;;;;;17.60;14.02;;;;;;;;;;5014071;28;20022;-77
2023/06/06 05:51:34;;;;;;;17.80;15.90;;;;;;;;;;5013888;28;20018;-77
2023/06/06 05:54:00;;;;;;;26.30;22.13;;;;;;;;;;5012814;28;20084;-78
2023/06/06 05:56:26;;;;;;;27.30;20.67;;;;;;;;;;4999722;28;20373;-77
2023/06/06 05:58:52;;;;;;;24.52;19.73;;;;;;;;;;5017269;28;20484;-78
2023/06/06 06:01:20;;;;;;;27.60;22.10;;;;;;;;;;5018020;28;20476;-78
2023/06/06 06:03:48;;;;;;;24.00;19.90;;;;;;;;;;5025622;28;20026;-78
2023/06/06 06:06:14;;;;;;;21.85;18.23;;;;;;;;;;5031725;28;20101;-78
2023/06/06 06:08:40;;;;;;;22.17;19.83;;;;;;;;;;5022583;28;20436;-78
2023/06/06 06:11:07;;;;;;;19.38;16.80;;;;;;;;;;5015620;28;20025;-77
2023/06/06 06:13:34;;;;;;;19.65;16.48;;;;;;;;;;5014372;28;20030;-76
2023/06/06 06:16:00;;;;;;;20.30;18.08;;;;;;;;;;5015056;28;20050;-78
2023/06/06 06:18:26;;;;;;;16.30;14.60;;;;;;;;;;5013433;28;20053;-73
2023/06/06 06:20:52;;;;;;;22.52;15.52;;;;;;;;;;5007587;28;20033;-74
2023/06/06 06:23:18;;;;;;;17.42;15.15;;;;;;;;;;5012859;28;20484;-74
2023/06/06 06:25:45;;;;;;;18.58;14.85;;;;;;;;;;5011799;28;20026;-67
2023/06/06 06:28:20;;;;;;;20.38;14.60;;;;;;;;;;5010910;28;20452;-66
2023/06/06 06:30:46;;;;;;;16.60;13.00;;;;;;;;;;5011930;28;20042;-66
2023/06/06 06:33:13;;;;;;;14.07;10.98;;;;;;;;;;5011680;28;20057;-66
2023/06/06 06:35:40;;;;;;;14.25;11.30;;;;;;;;;;5012392;28;20053;-66
2023/06/06 06:38:06;;;;;;;13.48;12.07;;;;;;;;;;5012300;28;20095;-74
2023/06/06 06:40:32;;;;;;;14.07;12.65;;;;;;;;;;4995416;28;20491;-75
2023/06/06 06:42:58;;;;;;;12.50;10.50;;;;;;;;;;5006342;28;20022;-76
2023/06/06 06:45:24;;;;;;;13.02;10.90;;;;;;;;;;5012247;28;20057;-75
2023/06/06 06:47:50;;;;;;;12.15;10.77;;;;;;;;;;5011688;28;20018;-75
2023/06/06 06:50:17;;;;;;;15.32;11.15;;;;;;;;;;5011196;28;20026;-75
2023/06/06 06:52:43;;;;;;;13.35;11.95;;;;;;;;;;5010604;28;20042;-75
2023/06/06 06:55:10;;;;;;;12.13;10.93;;;;;;;;;;5012695;28;20116;-76
2023/06/06 06:57:38;;;;;;;13.75;11.52;;;;;;;;;;5011968;28;20079;-75
2023/06/06 07:00:12;;;;;;;14.15;11.65;;;;;;;;;;5011855;28;20022;-76
2023/06/06 07:02:47;;;;;;;21.27;13.20;;;;;;;;;;5008702;28;20029;-75
2023/06/06 07:05:15;;;;;;;13.13;10.48;;;;;;;;;;5012276;28;20101;-75
2023/06/06 07:07:46;;;;;;;12.02;10.63;;;;;;;;;;5012051;28;20026;-75
2023/06/06 07:10:14;;;;;;;14.57;10.80;;;;;;;;;;5012318;28;20025;-76
2023/06/06 07:12:40;;;;;;;14.40;11.77;;;;;;;;;;5012935;28;20468;-75
2023/06/06 07:15:08;;;;;;;13.75;12.35;;;;;;;;;;5013077;28;20028;-77
2023/06/06 07:17:34;;;;;;;17.95;14.32;;;;;;;;;;5005230;28;20022;-75
2023/06/06 07:20:00;;;;;;;16.30;12.38;;;;;;;;;;5013288;28;20044;-75
2023/06/06 07:22:26;;;;;;;14.35;12.90;;;;;;;;;;5012205;28;20014;-75
2023/06/06 07:24:52;;;;;;;15.38;11.20;;;;;;;;;;5012210;28;20030;-75
2023/06/06 07:27:18;;;;;;;13.48;10.23;;;;;;;;;;5011991;28;20542;-75
2023/06/06 07:29:44;;;;;;;13.73;12.18;;;;;;;;;;5011730;28;20025;-75
2023/06/06 07:32:10;;;;;;;14.40;12.75;;;;;;;;;;5011956;28;20030;-76
2023/06/06 07:34:36;;;;;;;18.75;14.65;;;;;;;;;;5011920;28;20042;-75
2023/06/06 07:37:03;;;;;;;14.73;13.23;;;;;;;;;;5013091;28;20022;-75
2023/06/06 07:39:29;;;;;;;13.75;12.30;;;;;;;;;;5011814;28;20028;-75
2023/06/06 07:41:55;;;;;;;15.43;12.63;;;;;;;;;;5011634;28;20059;-76
2023/06/06 07:44:21;;;;;;;16.77;14.38;;;;;;;;;;5011405;28;20480;-75
2023/06/06 07:46:47;;;;;;;13.30;11.90;;;;;;;;;;5011889;28;20096;-75
2023/06/06 07:49:13;;;;;;;14.35;12.00;;;;;;;;;;5011645;28;20026;-75
2023/06/06 07:51:39;;;;;;;14.13;12.65;;;;;;;;;;5011647;28;20022;-76
2023/06/06 07:54:05;;;;;;;13.68;11.23;;;;;;;;;;5011219;28;20022;-76
2023/06/06 07:56:37;;;;;;;11.15;10.05;;;;;;;;;;5011215;28;20444;-75
2023/06/06 07:59:03;;;;;;;9.05;7.75;;;;;;;;;;5011337;28;20049;-75
2023/06/06 08:01:29;;;;;;;9.98;8.98;;;;;;;;;;5011875;28;20034;-76
2023/06/06 08:03:56;;;;;;;8.75;7.47;;;;;;;;;;5011462;28;20049;-76
2023/06/06 08:06:27;;;;;;;8.52;7.72;;;;;;;;;;5011524;28;20018;-76
2023/06/06 08:08:54;;;;;;;13.35;8.63;;;;;;;;;;5011484;28;20022;-75
2023/06/06 08:11:20;;;;;;;10.10;8.40;;;;;;;;;;5011621;28;20051;-75
2023/06/06 08:13:46;;;;;;;11.93;8.90;;;;;;;;;;5011199;28;20420;-75
2023/06/06 08:16:12;;;;;;;11.35;8.50;;;;;;;;;;5011239;28;20511;-75
2023/06/06 08:18:40;;;;;;;10.25;9.18;;;;;;;;;;5010980;28;20018;-76
2023/06/06 08:21:07;;;;;;;9.93;8.93;;;;;;;;;;5011174;28;20046;-77
2023/06/06 08:23:36;;;;;;;10.63;8.73;;;;;;;;;;5011099;28;20037;-76
2023/06/06 08:26:02;;;;;;;11.68;9.18;;;;;;;;;;5011188;28;20021;-76
2023/06/06 08:28:28;;;;;;;12.50;10.75;;;;;;;;;;5011188;28;20117;-77
2023/06/06 08:30:54;;;;;;;11.88;9.85;;;;;;;;;;5011233;28;20501;-76
2023/06/06 08:33:21;;;;;;;9.80;8.73;;;;;;;;;;5011237;28;20105;-76
2023/06/06 08:35:48;;;;;;;9.50;8.50;;;;;;;;;;5011162;28;20034;-76
2023/06/06 08:38:15;;;;;;;11.65;8.23;;;;;;;;;;5011122;28;20030;-76
2023/06/06 08:40:41;;;;;;;8.18;7.25;;;;;;;;;;5011072;28;20022;-76
2023/06/06 08:43:09;;;;;;;8.95;7.45;;;;;;;;;;5011219;28;20100;-75
2023/06/06 08:45:36;;;;;;;7.68;6.82;;;;;;;;;;5010918;28;20029;-76
2023/06/06 08:48:02;;;;;;;11.07;7.40;;;;;;;;;;5011145;28;20049;-76
2023/06/06 08:50:29;;;;;;;5.65;5.10;;;;;;;;;;5011089;28;20431;-76
2023/06/06 08:52:55;;;;;;;7.20;5.82;;;;;;;;;;5011518;28;20739;-76
2023/06/06 08:55:21;;;;;;;7.68;6.20;;;;;;;;;;5012875;28;20030;-76
2023/06/06 08:57:47;;;;;;;7.35;6.00;;;;;;;;;;5011505;28;20057;-76
2023/06/06 09:00:23;;;;;;;8.95;6.53;;;;;;;;;;5012391;28;20048;-76
2023/06/06 09:02:51;;;;;;;6.47;5.70;;;;;;;;;;5006555;28;20030;-78
2023/06/06 09:05:19;;;;;;;6.75;6.13;;;;;;;;;;5010915;28;20080;-76
2023/06/06 09:07:45;;;;;;;6.72;6.03;;;;;;;;;;5010909;28;20139;-76
2023/06/06 09:10:11;;;;;;;7.05;6.00;;;;;;;;;;5011595;28;20021;-76
2023/06/06 09:12:41;;;;;;;6.45;5.85;;;;;;;;;;5014698;28;20137;-75
2023/06/06 09:15:07;;;;;;;7.22;6.53;;;;;;;;;;5014314;28;20518;-76
2023/06/06 09:17:40;;;;;;;7.13;6.35;;;;;;;;;;5014416;28;20041;-76
2023/06/06 09:20:10;;;;;;;7.80;6.93;;;;;;;;;;5013997;28;20137;-76
2023/06/06 09:22:40;;;;;;;7.15;6.47;;;;;;;;;;5010958;28;20029;-76
2023/06/06 09:25:07;;;;;;;8.82;7.97;;;;;;;;;;5014154;28;20052;-76
2023/06/06 09:27:33;;;;;;;9.93;8.93;;;;;;;;;;5014175;28;20480;-76
2023/06/06 09:29:59;;;;;;;9.48;8.57;;;;;;;;;;5014088;28;20029;-75
2023/06/06 09:32:29;;;;;;;9.23;8.32;;;;;;;;;;5014225;28;20021;-77
2023/06/06 09:34:55;;;;;;;11.02;9.40;;;;;;;;;;5013902;28;20050;-75
2023/06/06 09:37:25;;;;;;;11.30;10.20;;;;;;;;;;5013680;28;20030;-76
2023/06/06 09:40:09;;;;;;;11.15;9.80;;;;;;;;;;5013872;28;20026;-76
2023/06/06 09:42:37;;;;;;;11.82;10.57;;;;;;;;;;4984018;28;20109;-76
2023/06/06 09:45:06;;;;;;;14.05;12.70;;;;;;;;;;5013766;28;20033;-76
2023/06/06 09:47:32;;;;;;;19.17;13.40;;;;;;;;;;5013713;28;20033;-75
2023/06/06 09:49:58;;;;;;;14.77;12.88;;;;;;;;;;5013490;28;20033;-76
2023/06/06 09:52:24;;;;;;;14.45;13.05;;;;;;;;;;5013832;28;20021;-76
2023/06/06 09:54:50;;;;;;;13.50;12.10;;;;;;;;;;4999882;28;20052;-76
2023/06/06 09:57:16;;;;;;;14.07;12.57;;;;;;;;;;5004921;28;20544;-76
2023/06/06 09:59:45;;;;;;;12.38;11.18;;;;;;;;;;5013236;28;20026;-76
2023/06/06 10:02:11;;;;;;;13.07;11.85;;;;;;;;;;5013425;28;20057;-76
2023/06/06 10:04:37;;;;;;;11.35;10.15;;;;;;;;;;5013533;28;20622;-76
2023/06/06 10:07:05;;;;;;;9.93;8.63;;;;;;;;;;5013483;28;20060;-76
2023/06/06 10:09:31;;;;;;;10.98;9.88;;;;;;;;;;5013382;28;20022;-76
2023/06/06 10:11:58;;;;;;;9.90;8.43;;;;;;;;;;5013441;28;20030;-76
2023/06/06 10:14:24;;;;;;;11.45;9.80;;;;;;;;;;5013305;28;20515;-76
2023/06/06 10:16:50;;;;;;;8.52;7.72;;;;;;;;;;5013424;28;20017;-76
2023/06/06 10:19:18;;;;;;;9.57;8.57;;;;;;;;;;5002526;28;20077;-76
2023/06/06 10:21:45;;;;;;;12.07;8.55;;;;;;;;;;5013094;28;20100;-76
2023/06/06 10:24:11;;;;;;;8.15;7.35;;;;;;;;;;5013076;28;20487;-76
2023/06/06 10:26:57;;;;;;;11.93;7.13;;;;;;;;;;5013190;28;20045;-76
2023/06/06 10:29:29;;;;;;;9.15;7.65;;;;;;;;;;5012773;28;20040;-76
2023/06/06 10:32:03;;;;;;;8.27;7.25;;;;;;;;;;5013294;28;20021;-76
2023/06/06 10:34:30;;;;;;;9.23;7.32;;;;;;;;;;4998243;28;20025;-76
2023/06/06 10:36:57;;;;;;;9.27;7.18;;;;;;;;;;5013191;28;20451;-76
2023/06/06 10:39:23;;;;;;;9.93;7.28;;;;;;;;;;5013035;28;20025;-76
2023/06/06 10:41:53;;;;;;;9.45;8.48;;;;;;;;;;5012747;28;20071;-76
2023/06/06 10:44:19;;;;;;;9.48;7.60;;;;;;;;;;5012719;28;20026;-76
2023/06/06 10:46:48;;;;;;;8.95;7.68;;;;;;;;;;5012724;28;20021;-76
2023/06/06 10:49:14;;;;;;;12.80;8.60;;;;;;;;;;5002387;28;20396;-76
2023/06/06 10:51:40;;;;;;;10.50;9.50;;;;;;;;;;5012946;28;20022;-76
2023/06/06 10:54:20;;;;;;;14.43;11.57;;;;;;;;;;5013541;28;20022;-76
2023/06/06 10:56:51;;;;;;;35.65;16.38;;;;;;;;;;5015697;28;20093;-77
2023/06/06 10:59:17;;;;;;;64.07;22.25;;;;;;;;;;5006968;28;20598;-76
2023/06/06 11:01:44;;;;;;;72.05;30.90;;;;;;;;;;5009776;28;20484;-77
2023/06/06 11:04:20;;;;;;;57.50;36.13;;;;;;;;;;5014948;28;20486;-77
2023/06/06 11:06:50;;;;;;;42.72;32.03;;;;;;;;;;5014089;28;20108;-77
2023/06/06 11:09:19;;;;;;;35.65;25.35;;;;;;;;;;5014584;28;20030;-77
2023/06/06 11:11:45;;;;;;;25.83;21.15;;;;;;;;;;5015449;28;20014;-77
2023/06/06 11:14:11;;;;;;;32.13;25.75;;;;;;;;;;5014575;28;20033;-77
2023/06/06 11:16:40;;;;;;;32.30;27.63;;;;;;;;;;5014519;28;20022;-77
2023/06/06 11:19:11;;;;;;;34.60;25.75;;;;;;;;;;5012267;28;20057;-77
2023/06/06 11:21:38;;;;;;;43.20;31.67;;;;;;;;;;4999422;28;20112;-77
2023/06/06 11:24:04;;;;;;;31.23;25.27;;;;;;;;;;5011251;28;20495;-77
2023/06/06 11:26:30;;;;;;;25.23;21.98;;;;;;;;;;5011058;28;20083;-77
2023/06/06 11:28:56;;;;;;;34.63;28.80;;;;;;;;;;5011888;28;20018;-77
2023/06/06 11:31:23;;;;;;;32.40;26.67;;;;;;;;;;5008620;28;20144;-77
2023/06/06 11:33:50;;;;;;;26.90;21.98;;;;;;;;;;5011041;28;20033;-77
2023/06/06 11:36:16;;;;;;;31.02;24.23;;;;;;;;;;5010529;28;20152;-77
2023/06/06 11:38:42;;;;;;;16.95;14.10;;;;;;;;;;5014605;28;20053;-78
2023/06/06 11:41:09;;;;;;;18.73;16.80;;;;;;;;;;5013978;28;20095;-78
2023/06/06 11:43:35;;;;;;;24.10;21.48;;;;;;;;;;5015255;28;20033;-78
2023/06/06 11:46:05;;;;;;;26.92;24.02;;;;;;;;;;5014849;28;20018;-79
2023/06/06 11:48:31;;;;;;;17.20;15.10;;;;;;;;;;5013270;28;20072;-77
2023/06/06 11:50:57;;;;;;;15.20;13.68;;;;;;;;;;5012723;28;20029;-76
2023/06/06 11:53:35;;;;;;;12.68;11.38;;;;;;;;;;5007917;28;20033;-77
2023/06/06 11:56:01;;;;;;;12.63;11.38;;;;;;;;;;5018085;28;20033;-78
2023/06/06 11:58:29;;;;;;;12.63;10.85;;;;;;;;;;5012433;28;20057;-79
2023/06/06 12:00:56;;;;;;;10.27;7.55;;;;;;;;;;5014635;28;20033;-78
2023/06/06 12:03:22;;;;;;;11.30;8.98;;;;;;;;;;5013497;28;20068;-79
2023/06/06 12:06:00;;;;;;;7.13;6.35;;;;;;;;;;5013726;28;20167;-77
2023/06/06 12:08:26;;;;;;;9.88;7.50;;;;;;;;;;5011362;28;20026;-77
2023/06/06 12:10:52;;;;;;;8.13;6.50;;;;;;;;;;5013907;28;20033;-77
2023/06/06 12:13:31;;;;;;;8.45;7.43;;;;;;;;;;5015964;28;20416;-78
2023/06/06 12:15:57;;;;;;;7.20;6.50;;;;;;;;;;5015849;28;20036;-78
2023/06/06 12:18:24;;;;;;;6.35;5.75;;;;;;;;;;5015429;28;20054;-78
2023/06/06 12:20:50;;;;;;;6.72;5.28;;;;;;;;;;5015620;28;20038;-78
2023/06/06 12:23:29;;;;;;;7.60;5.88;;;;;;;;;;5014427;28;20061;-79
2023/06/06 12:25:59;;;;;;;6.70;5.57;;;;;;;;;;5016134;28;20029;-78
2023/06/06 12:28:25;;;;;;;4.70;4.30;;;;;;;;;;5015233;28;20105;-78
2023/06/06 12:30:52;;;;;;;5.68;5.15;;;;;;;;;;5015484;28;20093;-76
2023/06/06 12:33:19;;;;;;;5.20;4.70;;;;;;;;;;5013444;28;20018;-77
2023/06/06 12:35:45;;;;;;;5.30;4.85;;;;;;;;;;5012838;28;20030;-79
2023/06/06 12:38:22;;;;;;;8.82;4.43;;;;;;;;;;5013989;28;20601;-77
2023/06/06 12:40:57;;;;;;;6.32;4.75;;;;;;;;;;5013359;28;20499;-77
2023/06/06 12:43:23;;;;;;;6.95;4.30;;;;;;;;;;5016310;28;20032;-77
2023/06/06 12:45:49;;;;;;;6.30;4.05;;;;;;;;;;4999642;28;20516;-77
2023/06/06 12:48:20;;;;;;;8.60;4.63;;;;;;;;;;5016736;28;20041;-78
2023/06/06 12:50:47;;;;;;;7.65;4.60;;;;;;;;;;5015901;28;20022;-76
2023/06/06 12:53:14;;;;;;;6.60;4.68;;;;;;;;;;5015687;28;20073;-78
2023/06/06 12:55:43;;;;;;;5.53;4.75;;;;;;;;;;4998112;28;20025;-77
2023/06/06 12:58:10;;;;;;;6.32;4.63;;;;;;;;;;4998645;28;20034;-77
2023/06/06 13:00:38;;;;;;;4.65;4.13;;;;;;;;;;5015214;28;20113;-75
2023/06/06 13:03:05;;;;;;;4.75;4.35;;;;;;;;;;4997024;28;20125;-77
2023/06/06 13:05:31;;;;;;;5.55;4.50;;;;;;;;;;5017532;28;20025;-77
2023/06/06 13:07:57;;;;;;;6.65;4.60;;;;;;;;;;5025031;28;20030;-77
2023/06/06 13:10:23;;;;;;;7.82;4.50;;;;;;;;;;5017598;28;20022;-77
2023/06/06 13:12:49;;;;;;;7.03;5.35;;;;;;;;;;5017325;28;20033;-77
2023/06/06 13:15:16;;;;;;;6.30;5.70;;;;;;;;;;5017327;28;20026;-77
2023/06/06 13:17:42;;;;;;;6.70;6.03;;;;;;;;;;5015399;28;20438;-77
2023/06/06 13:20:08;;;;;;;9.48;6.75;;;;;;;;;;5015865;28;20045;-77
2023/06/06 13:22:34;;;;;;;7.00;6.30;;;;;;;;;;5016885;28;20060;-76
2023/06/06 13:25:01;;;;;;;7.03;5.93;;;;;;;;;;5015790;28;20026;-74
2023/06/06 13:27:27;;;;;;;5.30;4.57;;;;;;;;;;5015767;28;20030;-76
2023/06/06 13:29:53;;;;;;;7.90;4.97;;;;;;;;;;5015219;28;20026;-76
2023/06/06 13:32:19;;;;;;;5.18;4.63;;;;;;;;;;5014943;28;20495;-77
2023/06/06 13:34:45;;;;;;;5.22;4.72;;;;;;;;;;5014987;28;20036;-77
2023/06/06 13:37:11;;;;;;;5.47;4.97;;;;;;;;;;5038060;23;20046;-73
2023/06/06 13:39:37;;;;;;;5.93;5.28;;;;;;;;;;5013617;28;20527;-73
2023/06/06 13:42:03;;;;;;;6.43;4.65;;;;;;;;;;5013645;28;20491;-73
2023/06/06 13:44:29;;;;;;;6.72;5.05;;;;;;;;;;5013459;28;20044;-73
2023/06/06 13:46:55;;;;;;;8.38;5.28;;;;;;;;;;5020659;28;20029;-73
2023/06/06 13:49:21;;;;;;;16.33;5.57;;;;;;;;;;5033716;28;20448;-73
2023/06/06 13:51:48;;;;;;;7.57;6.20;;;;;;;;;;5033809;28;20075;-72
2023/06/06 13:54:14;;;;;;;8.10;5.97;;;;;;;;;;5032523;28;20494;-74
2023/06/06 13:56:43;;;;;;;7.20;5.80;;;;;;;;;;5015654;28;20075;-72
2023/06/06 13:59:09;;;;;;;8.50;5.60;;;;;;;;;;5033138;28;20053;-73
2023/06/06 14:01:36;;;;;;;7.15;6.13;;;;;;;;;;5033387;28;20025;-72
2023/06/06 14:04:02;;;;;;;8.18;6.15;;;;;;;;;;5033062;28;20022;-72
2023/06/06 14:06:28;;;;;;;6.50;5.78;;;;;;;;;;5015247;28;20037;-72
2023/06/06 14:08:54;;;;;;;6.57;5.45;;;;;;;;;;5032826;28;20026;-72
2023/06/06 14:11:21;;;;;;;5.43;4.90;;;;;;;;;;5033194;28;20026;-73
2023/06/06 14:13:47;;;;;;;5.97;5.13;;;;;;;;;;5033163;28;20025;-72
2023/06/06 14:16:15;;;;;;;5.45;4.90;;;;;;;;;;5033160;28;20032;-72
2023/06/06 14:18:46;;;;;;;7.57;4.93;;;;;;;;;;5032751;28;20032;-73
2023/06/06 14:23:44;;;;;;;4.88;4.38;;;;;;;;;;5032860;28;20033;-73
2023/06/06 14:26:11;;;;;;;6.70;4.40;;;;;;;;;;5032852;28;20428;-74
2023/06/06 14:28:37;;;;;;;6.40;3.95;;;;;;;;;;5032725;28;20552;-73
2023/06/06 14:31:03;;;;;;;4.57;4.15;;;;;;;;;;5032793;28;20030;-73